createdAt,value
2022-12-27T00:00:11.011Z,8.48
2022-12-27T00:05:09.595Z,7.85
2022-12-27T00:10:08.250Z,7.95
2022-12-27T00:15:06.297Z,6.95
2022-12-27T00:20:11.044Z,7.25
2022-12-27T00:25:10.069Z,7.10
2022-12-27T00:30:08.836Z,7.22
2022-12-27T00:35:06.553Z,7.53
2022-12-27T00:40:04.108Z,6.82
2022-12-27T00:45:01.277Z,7.20
2022-12-27T00:49:58.679Z,8.07
2022-12-27T00:54:56.039Z,8.50
2022-12-27T00:59:53.445Z,8.27
2022-12-27T01:04:50.714Z,9.15
2022-12-27T01:09:48.027Z,7.75
2022-12-27T01:14:45.624Z,7.63
2022-12-27T01:19:42.948Z,8.52
2022-12-27T01:24:40.179Z,7.60
2022-12-27T01:29:37.497Z,7.35
2022-12-27T01:34:34.961Z,7.70
2022-12-27T01:39:32.289Z,7.72
2022-12-27T01:44:38.899Z,7.68
2022-12-27T01:49:36.192Z,7.43
2022-12-27T01:54:33.721Z,6.80
2022-12-27T01:59:32.286Z,6.53
2022-12-27T02:04:32.239Z,6.97
2022-12-27T02:09:40.261Z,7.35
2022-12-27T02:14:47.213Z,6.95
2022-12-27T02:20:05.830Z,7.20
2022-12-27T02:25:27.455Z,7.18
2022-12-27T02:30:25.371Z,7.28
2022-12-27T02:35:36.087Z,6.63
2022-12-27T02:41:10.268Z,7.60
2022-12-27T02:46:42.204Z,7.05
2022-12-27T02:52:13.226Z,6.57
2022-12-27T02:57:40.049Z,6.13
2022-12-27T03:03:29.008Z,5.88
2022-12-27T03:08:35.829Z,6.78
2022-12-27T03:13:54.736Z,6.45
2022-12-27T03:18:55.256Z,6.13
2022-12-27T03:24:15.381Z,6.38
2022-12-27T03:29:33.747Z,6.77
2022-12-27T03:34:40.171Z,7.35
2022-12-27T03:39:40.693Z,7.07
2022-12-27T03:44:38.425Z,6.40
2022-12-27T03:49:48.528Z,7.07
2022-12-27T03:54:49.400Z,8.00
2022-12-27T03:59:46.871Z,7.03
2022-12-27T04:04:44.497Z,6.18
2022-12-27T04:10:00.608Z,7.22
2022-12-27T04:15:16.508Z,7.75
2022-12-27T04:20:33.190Z,8.35
2022-12-27T04:25:48.986Z,9.55
2022-12-27T04:31:04.820Z,8.25
2022-12-27T04:36:06.220Z,9.13
2022-12-27T04:41:23.359Z,8.63
2022-12-27T04:46:44.518Z,8.38
2022-12-27T04:52:00.896Z,9.90
2022-12-27T04:56:58.974Z,8.23
2022-12-27T05:02:04.935Z,9.50
2022-12-27T05:07:47.969Z,8.40
2022-12-27T05:13:07.664Z,8.13
2022-12-27T05:18:06.672Z,9.35
2022-12-27T05:23:22.404Z,7.30
2022-12-27T05:28:20.048Z,8.20
2022-12-27T05:33:17.500Z,8.90
2022-12-27T05:38:14.962Z,8.38
2022-12-27T05:43:12.463Z,8.35
2022-12-27T05:48:09.730Z,8.52
2022-12-27T05:53:07.239Z,9.13
2022-12-27T05:58:04.475Z,8.00
2022-12-27T06:03:03.408Z,8.68
2022-12-27T06:08:01.267Z,11.27
2022-12-27T06:13:02.218Z,8.60
2022-12-27T06:18:00.620Z,8.60
2022-12-27T06:23:00.241Z,10.13
2022-12-27T06:27:57.548Z,8.60
2022-12-27T06:32:54.836Z,7.85
2022-12-27T06:37:52.111Z,8.98
2022-12-27T06:42:49.341Z,9.55
2022-12-27T06:47:46.751Z,8.23
2022-12-27T06:52:44.032Z,7.82
2022-12-27T06:57:41.260Z,7.68
2022-12-27T07:02:38.958Z,9.10
2022-12-27T07:07:36.313Z,9.32
2022-12-27T07:12:36.761Z,9.02
2022-12-27T07:17:37.679Z,7.10
2022-12-27T07:22:35.037Z,8.15
2022-12-27T07:27:36.169Z,8.95
2022-12-27T07:32:33.526Z,9.48
2022-12-27T07:37:30.765Z,8.57
2022-12-27T07:42:29.244Z,8.27
2022-12-27T07:47:26.833Z,8.40
2022-12-27T07:52:24.555Z,9.35
2022-12-27T07:57:21.968Z,8.27
2022-12-27T08:02:19.342Z,9.95
2022-12-27T08:07:19.174Z,9.25
2022-12-27T08:12:16.933Z,9.38
2022-12-27T08:17:20.503Z,9.73
2022-12-27T08:22:17.946Z,9.27
2022-12-27T08:27:22.242Z,8.38
2022-12-27T08:32:19.657Z,10.40
2022-12-27T08:37:17.190Z,8.73
2022-12-27T08:42:14.434Z,8.63
2022-12-27T08:47:11.878Z,8.80
2022-12-27T08:52:09.150Z,7.82
2022-12-27T08:57:06.360Z,7.13
2022-12-27T09:02:03.715Z,7.47
2022-12-27T09:07:01.522Z,9.02
2022-12-27T09:12:02.245Z,7.45
2022-12-27T09:17:00.443Z,7.57
2022-12-27T09:21:58.043Z,7.40
2022-12-27T09:32:10.543Z,7.30
2022-12-27T09:37:08.331Z,6.65
2022-12-27T09:47:56.726Z,6.70
2022-12-27T09:53:07.378Z,6.90
2022-12-27T09:58:19.940Z,6.43
2022-12-27T10:03:20.139Z,6.95
2022-12-27T10:09:01.485Z,7.28
2022-12-27T10:14:07.998Z,6.40
2022-12-27T10:19:23.775Z,7.43
2022-12-27T10:24:26.549Z,6.85
2022-12-27T10:29:33.156Z,6.35
2022-12-27T10:34:30.865Z,6.60
2022-12-27T10:39:36.303Z,6.00
2022-12-27T10:44:33.634Z,7.50
2022-12-27T10:49:33.696Z,7.07
2022-12-27T10:59:29.314Z,7.47
2022-12-27T11:04:27.383Z,6.70
2022-12-27T11:09:30.535Z,7.70
2022-12-27T11:14:28.166Z,8.57
2022-12-27T11:19:27.589Z,7.05
2022-12-27T11:24:24.909Z,7.57
2022-12-27T11:29:25.145Z,8.25
2022-12-27T11:34:33.173Z,7.75
2022-12-27T11:39:52.693Z,9.30
2022-12-27T11:45:18.972Z,7.13
2022-12-27T11:50:56.907Z,6.07
2022-12-27T11:56:07.475Z,6.70
2022-12-27T12:06:31.439Z,6.30
2022-12-27T12:11:38.041Z,6.82
2022-12-27T12:16:53.923Z,6.50
2022-12-27T12:22:30.202Z,7.18
2022-12-27T12:27:33.281Z,7.45
2022-12-27T12:32:56.825Z,7.65
2022-12-27T12:38:00.135Z,8.35
2022-12-27T12:43:13.507Z,8.63
2022-12-27T12:48:58.327Z,9.05
2022-12-27T12:53:58.475Z,9.93
2022-12-27T12:59:17.449Z,10.23
2022-12-27T13:04:23.681Z,9.35
2022-12-27T13:09:45.774Z,7.40
2022-12-27T13:15:12.332Z,6.70
2022-12-27T13:20:34.390Z,8.20
2022-12-27T13:26:03.517Z,7.60
2022-12-27T13:31:13.081Z,8.38
2022-12-27T13:36:16.765Z,8.87
2022-12-27T13:41:42.045Z,9.75
2022-12-27T13:47:01.342Z,9.40
2022-12-27T13:52:40.103Z,11.35
2022-12-27T13:58:07.890Z,8.95
2022-12-27T14:03:23.816Z,11.20
2022-12-27T14:08:58.766Z,10.45
2022-12-27T14:14:02.156Z,13.82
2022-12-27T14:19:12.224Z,14.77
2022-12-27T14:24:40.320Z,12.57
2022-12-27T14:29:56.212Z,13.60
2022-12-27T14:35:11.584Z,16.98
2022-12-27T14:40:34.428Z,15.13
2022-12-27T14:45:44.083Z,14.48
2022-12-27T14:51:50.084Z,11.32
2022-12-27T14:56:37.738Z,13.00
2022-12-27T15:02:02.374Z,8.73
2022-12-27T15:07:36.796Z,8.55
2022-12-27T15:13:01.821Z,7.25
2022-12-27T15:18:14.515Z,8.52
2022-12-27T15:23:50.350Z,8.30
2022-12-27T15:29:06.488Z,9.35
2022-12-27T15:34:24.538Z,9.40
2022-12-27T15:39:34.564Z,8.93
2022-12-27T15:44:55.588Z,7.70
2022-12-27T15:50:43.284Z,13.85
2022-12-27T15:56:02.579Z,10.50
2022-12-27T16:01:25.505Z,10.02
2022-12-27T16:06:43.735Z,12.45
2022-12-27T16:12:06.098Z,10.40
2022-12-27T16:17:24.694Z,9.60
2022-12-27T16:22:51.964Z,11.40
2022-12-27T16:28:24.030Z,12.88
2022-12-27T16:33:27.525Z,14.85
2022-12-27T16:38:24.898Z,14.70
2022-12-27T16:43:41.309Z,14.23
2022-12-27T16:49:11.274Z,12.32
2022-12-27T16:54:19.129Z,12.30
2022-12-27T17:00:02.658Z,14.23
2022-12-27T17:05:01.558Z,10.35
2022-12-27T17:10:27.588Z,11.52
2022-12-27T17:15:25.728Z,11.68
2022-12-27T17:20:24.456Z,11.48
2022-12-27T17:25:31.914Z,12.82
2022-12-27T17:30:55.093Z,11.13
2022-12-27T17:36:01.064Z,9.40
2022-12-27T17:41:45.589Z,10.27
2022-12-27T17:46:57.656Z,9.57
2022-12-27T17:52:14.192Z,8.93
2022-12-27T17:57:32.409Z,9.00
2022-12-27T18:02:36.302Z,9.75
2022-12-27T18:07:34.859Z,9.45
2022-12-27T18:12:38.385Z,8.75
2022-12-27T18:17:42.303Z,8.25
2022-12-27T18:22:39.619Z,7.40
2022-12-27T18:27:36.798Z,8.38
2022-12-27T18:32:35.473Z,7.57
2022-12-27T18:37:36.466Z,7.45
2022-12-27T18:42:51.290Z,7.97
2022-12-27T18:47:51.421Z,11.60
2022-12-27T18:58:06.584Z,11.25
2022-12-27T19:03:15.553Z,11.70
2022-12-27T19:08:20.244Z,11.95
2022-12-27T19:13:36.657Z,11.85
2022-12-27T19:18:38.618Z,12.73
2022-12-27T19:23:38.795Z,13.63
2022-12-27T19:28:39.757Z,12.75
2022-12-27T19:33:39.757Z,14.40
2022-12-27T19:38:42.731Z,10.43
2022-12-27T19:43:46.815Z,9.90
2022-12-27T19:48:44.087Z,11.45
2022-12-27T19:53:44.063Z,11.43
2022-12-27T19:58:44.233Z,15.05
2022-12-27T20:03:41.581Z,15.20
2022-12-27T20:08:42.852Z,14.82
2022-12-27T20:13:40.309Z,12.23
2022-12-27T20:18:38.956Z,11.70
2022-12-27T20:23:37.688Z,12.88
2022-12-27T20:28:34.994Z,13.48
2022-12-27T20:33:32.354Z,10.50
2022-12-27T20:38:29.805Z,10.35
2022-12-27T20:43:27.321Z,11.63
2022-12-27T20:48:24.526Z,12.85
2022-12-27T20:53:21.771Z,11.93
2022-12-27T20:58:19.005Z,12.32
2022-12-27T21:03:16.346Z,11.15
2022-12-27T21:08:13.674Z,11.70
2022-12-27T21:13:10.902Z,9.43
2022-12-27T21:18:08.200Z,9.80
2022-12-27T21:23:05.474Z,9.15
2022-12-27T21:28:02.913Z,10.15
2022-12-27T21:33:00.770Z,9.48
2022-12-27T21:37:58.576Z,9.43
2022-12-27T21:42:55.883Z,9.13
2022-12-27T21:47:53.143Z,11.57
2022-12-27T21:52:50.481Z,9.52
2022-12-27T21:57:47.828Z,9.73
2022-12-27T22:02:50.154Z,9.32
2022-12-27T22:07:47.622Z,9.02
2022-12-27T22:12:45.208Z,7.97
2022-12-27T22:17:43.097Z,7.85
2022-12-27T22:22:40.542Z,9.90
2022-12-27T22:27:37.800Z,9.73
2022-12-27T22:32:35.079Z,9.25
2022-12-27T22:37:32.457Z,10.77
2022-12-27T22:42:29.738Z,9.70
2022-12-27T22:47:28.125Z,8.10
2022-12-27T22:52:25.894Z,9.00
2022-12-27T22:57:23.452Z,9.82
2022-12-27T23:02:20.740Z,9.95
2022-12-27T23:07:21.311Z,9.40
2022-12-27T23:12:38.561Z,9.20
2022-12-27T23:17:35.835Z,8.05
2022-12-27T23:22:33.158Z,9.18
2022-12-27T23:27:33.261Z,10.18
2022-12-27T23:37:27.682Z,12.00
2022-12-27T23:42:25.069Z,10.48
2022-12-27T23:47:22.405Z,11.73
2022-12-27T23:52:19.842Z,13.88
2022-12-27T23:57:20.033Z,12.27
